Liberty Promise — WWMZ — position and weather

sailwx.info

Track history (hours):
 
Tides and Currents Weather Stations Pressure Air Temp Water Temp Dewpoint Dewpoint Depression Visibility Wind Speed Wind Dir Waves Ship Positions

Liberty Promise

Owner: LIBERTY PROMISE CORPORATION, LAKE SUCCESS, NY. More information available from US FCC via Universal Licensing System and Coast Guard Vessel Documentation Center.

Last reported at 2017-Feb-27 20:05 UTC. Time now 2017-Feb-27 20:36 UTC.
Position N 37°24' W 000°44'.

Length 200 m; draft 9.6 m.

Type: Cargo ship. MMSI: 366102000.

Date/timePositionNaut miles runAvg speedWind from/ knotsBaromVisibWave heightAir tempDewpointWater temp
2017-Feb-27 20:05N 37°24' W 000°44'23117.8
2017-Feb-27 07:08N 36°00' W 005°12'1322.3
2017-Feb-27 06:33N 35°57' W 005°28'  
2017-Feb-19 05:27N 38°36' W 074°52'9 9.6
2017-Feb-19 04:33N 38°43' W 074°58'9 9.0
2017-Feb-19 03:33N 38°50' W 075°05'1414.4
2017-Feb-19 02:33N 39°04' W 075°10'1615.6
2017-Feb-19 01:33N 39°17' W 075°22'1615.6
2017-Feb-19 00:33N 39°30' W 075°34'1212.2
2017-Feb-18 23:33N 39°42' W 075°31'1 0.9
2017-Feb-18 22:31N 39°43' W 075°31'0 0.0
2017-Feb-18 21:31N 39°43' W 075°31'0 0.0
2017-Feb-18 20:31N 39°43' W 075°31'0 0.0
2017-Feb-18 19:28N 39°43' W 075°31'0 0.0
2017-Feb-18 18:31N 39°43' W 075°31'0 0.0
2017-Feb-18 17:31N 39°43' W 075°31'0 0.0
2017-Feb-18 16:31N 39°43' W 075°31'0 0.0
2017-Feb-18 15:31N 39°43' W 075°31'0 0.0
2017-Feb-18 14:31N 39°43' W 075°31'0 0.0
2017-Feb-18 13:31N 39°43' W 075°31'0 0.0
2017-Feb-18 12:31N 39°43' W 075°31'0 0.0
2017-Feb-18 11:31N 39°43' W 075°31'0 0.0
2017-Feb-18 10:31N 39°43' W 075°31'0 0.0
2017-Feb-18 09:31N 39°43' W 075°31'0 0.0
2017-Feb-18 08:31N 39°43' W 075°31'0 0.0
2017-Feb-18 07:31N 39°43' W 075°31'0 0.0
2017-Feb-18 06:31N 39°43' W 075°31'0 0.0
2017-Feb-18 05:31N 39°43' W 075°31'0 0.0
2017-Feb-18 04:31N 39°43' W 075°31'0 0.0
2017-Feb-18 03:31N 39°43' W 075°31'0 0.0
2017-Feb-18 02:31N 39°43' W 075°31'0 0.0
2017-Feb-18 01:31N 39°43' W 075°31'0 0.0
2017-Feb-18 00:31N 39°43' W 075°31'0 0.0
2017-Feb-17 23:31N 39°43' W 075°31'0 0.0
2017-Feb-17 22:33N 39°43' W 075°31'4 3.9
2017-Feb-17 21:33N 39°39' W 075°33'10 9.9
2017-Feb-17 20:34N 39°29' W 075°34'  
Track history (hours):
 
Tides and Currents Weather Stations Pressure Air Temp Water Temp Dewpoint Dewpoint Depression Visibility Wind Speed Wind Dir Waves Ship Positions

Liberty Promise

Owner: LIBERTY PROMISE CORPORATION, LAKE SUCCESS, NY. More information available from US FCC via Universal Licensing System and Coast Guard Vessel Documentation Center.

Last reported at 2017-Feb-27 20:05 UTC. Time now 2017-Feb-27 20:36 UTC.
Position N 37°24' W 000°44'.

Length 200 m; draft 9.6 m.

Type: Cargo ship. MMSI: 366102000.

Date/timePositionNaut miles runAvg speedWind from/ knotsBaromVisibWave heightAir tempDewpointWater temp
2017-Feb-27 20:05N 37°24' W 000°44'23117.8
2017-Feb-27 07:08N 36°00' W 005°12'1322.3
2017-Feb-27 06:33N 35°57' W 005°28'  
2017-Feb-19 05:27N 38°36' W 074°52'9 9.6
2017-Feb-19 04:33N 38°43' W 074°58'9 9.0
2017-Feb-19 03:33N 38°50' W 075°05'1414.4
2017-Feb-19 02:33N 39°04' W 075°10'1615.6
2017-Feb-19 01:33N 39°17' W 075°22'1615.6
2017-Feb-19 00:33N 39°30' W 075°34'1212.2
2017-Feb-18 23:33N 39°42' W 075°31'1 0.9
2017-Feb-18 22:31N 39°43' W 075°31'0 0.0
2017-Feb-18 21:31N 39°43' W 075°31'0 0.0
2017-Feb-18 20:31N 39°43' W 075°31'0 0.0
2017-Feb-18 19:28N 39°43' W 075°31'0 0.0
2017-Feb-18 18:31N 39°43' W 075°31'0 0.0
2017-Feb-18 17:31N 39°43' W 075°31'0 0.0
2017-Feb-18 16:31N 39°43' W 075°31'0 0.0
2017-Feb-18 15:31N 39°43' W 075°31'0 0.0
2017-Feb-18 14:31N 39°43' W 075°31'0 0.0
2017-Feb-18 13:31N 39°43' W 075°31'0 0.0
2017-Feb-18 12:31N 39°43' W 075°31'0 0.0
2017-Feb-18 11:31N 39°43' W 075°31'0 0.0
2017-Feb-18 10:31N 39°43' W 075°31'0 0.0
2017-Feb-18 09:31N 39°43' W 075°31'0 0.0
2017-Feb-18 08:31N 39°43' W 075°31'0 0.0
2017-Feb-18 07:31N 39°43' W 075°31'0 0.0
2017-Feb-18 06:31N 39°43' W 075°31'0 0.0
2017-Feb-18 05:31N 39°43' W 075°31'0 0.0
2017-Feb-18 04:31N 39°43' W 075°31'0 0.0
2017-Feb-18 03:31N 39°43' W 075°31'0 0.0
2017-Feb-18 02:31N 39°43' W 075°31'0 0.0
2017-Feb-18 01:31N 39°43' W 075°31'0 0.0
2017-Feb-18 00:31N 39°43' W 075°31'0 0.0
2017-Feb-17 23:31N 39°43' W 075°31'0 0.0
2017-Feb-17 22:33N 39°43' W 075°31'4 3.9
2017-Feb-17 21:33N 39°39' W 075°33'10 9.9
2017-Feb-17 20:34N 39°29' W 075°34'  

Dump ship's entire track history